sensor_id;sensor_type;location;lat;lon;timestamp;pressure;altitude;pressure_sealevel;temperature;humidity
68594;BME280;55563;52.416;13.548;2023-04-26T00:01:28;100910.56;;;4.49;100.00
68594;BME280;55563;52.416;13.548;2023-04-26T00:03:35;100913.56;;;4.52;100.00
68594;BME280;55563;52.416;13.548;2023-04-26T00:05:56;100915.41;;;4.45;100.00
68594;BME280;55563;52.416;13.548;2023-04-26T00:08:03;100920.66;;;4.38;100.00
68594;BME280;55563;52.416;13.548;2023-04-26T00:10:24;100920.66;;;4.38;100.00
68594;BME280;55563;52.416;13.548;2023-04-26T00:12:31;100921.25;;;4.41;100.00
68594;BME280;55563;52.416;13.548;2023-04-26T00:15:00;100911.94;;;4.26;100.00
68594;BME280;55563;52.416;13.548;2023-04-26T00:17:28;100921.72;;;4.31;100.00
68594;BME280;55563;52.416;13.548;2023-04-26T00:19:35;100917.13;;;4.26;100.00
68594;BME280;55563;52.416;13.548;2023-04-26T00:22:03;100922.13;;;4.28;100.00
68594;BME280;55563;52.416;13.548;2023-04-26T00:24:31;100927.38;;;4.21;100.00
68594;BME280;55563;52.416;13.548;2023-04-26T00:26:38;100915.78;;;4.17;100.00
68594;BME280;55563;52.416;13.548;2023-04-26T00:29:00;100913.44;;;4.09;100.00
68594;BME280;55563;52.416;13.548;2023-04-26T00:31:13;100908.41;;;4.14;100.00
68594;BME280;55563;52.416;13.548;2023-04-26T00:33:41;100915.66;;;4.06;100.00
68594;BME280;55563;52.416;13.548;2023-04-26T00:36:09;100914.81;;;4.12;100.00
68594;BME280;55563;52.416;13.548;2023-04-26T00:38:17;100926.41;;;4.16;100.00
68594;BME280;55563;52.416;13.548;2023-04-26T00:40:38;100910.63;;;4.11;100.00
68594;BME280;55563;52.416;13.548;2023-04-26T00:42:45;100917.19;;;4.13;100.00
68594;BME280;55563;52.416;13.548;2023-04-26T00:50:16;100917.81;;;4.09;100.00
68594;BME280;55563;52.416;13.548;2023-04-26T00:50:16;100924.47;;;3.98;100.00
68594;BME280;55563;52.416;13.548;2023-04-26T00:52:29;100916.13;;;3.89;100.00
68594;BME280;55563;52.416;13.548;2023-04-26T00:54:58;100922.53;;;3.87;100.00
68594;BME280;55563;52.416;13.548;2023-04-26T00:57:27;100919.16;;;3.86;100.00
68594;BME280;55563;52.416;13.548;2023-04-26T00:59:35;100916.53;;;3.93;100.00
68594;BME280;55563;52.416;13.548;2023-04-26T01:01:55;100922.16;;;3.83;100.00
68594;BME280;55563;52.416;13.548;2023-04-26T01:04:03;100921.94;;;3.91;100.00
68594;BME280;55563;52.416;13.548;2023-04-26T01:06:33;100926.94;;;3.86;100.00
68594;BME280;55563;52.416;13.548;2023-04-26T01:08:41;100921.75;;;3.80;100.00
68594;BME280;55563;52.416;13.548;2023-04-26T01:11:03;100929.38;;;3.75;100.00
68594;BME280;55563;52.416;13.548;2023-04-26T01:13:10;100926.78;;;3.75;100.00
68594;BME280;55563;52.416;13.548;2023-04-26T01:15:31;100927.00;;;3.73;100.00
68594;BME280;55563;52.416;13.548;2023-04-26T01:17:39;100920.59;;;3.76;100.00
68594;BME280;55563;52.416;13.548;2023-04-26T01:20:00;100924.25;;;3.62;100.00
68594;BME280;55563;52.416;13.548;2023-04-26T01:22:14;100929.81;;;3.72;100.00
68594;BME280;55563;52.416;13.548;2023-04-26T01:24:31;100924.59;;;3.72;100.00
68594;BME280;55563;52.416;13.548;2023-04-26T01:26:46;100936.66;;;3.60;100.00
68594;BME280;55563;52.416;13.548;2023-04-26T01:29:22;100939.41;;;3.65;100.00
68594;BME280;55563;52.416;13.548;2023-04-26T01:31:30;100932.03;;;3.62;100.00
68594;BME280;55563;52.416;13.548;2023-04-26T01:33:51;100937.66;;;3.52;100.00
68594;BME280;55563;52.416;13.548;2023-04-26T01:36:08;100939.88;;;3.48;100.00
68594;BME280;55563;52.416;13.548;2023-04-26T01:38:29;100936.66;;;3.53;100.00
68594;BME280;55563;52.416;13.548;2023-04-26T01:40:36;100947.47;;;3.50;100.00
68594;BME280;55563;52.416;13.548;2023-04-26T01:42:58;100947.06;;;3.60;100.00
68594;BME280;55563;52.416;13.548;2023-04-26T01:45:12;100955.66;;;3.54;100.00
68594;BME280;55563;52.416;13.548;2023-04-26T01:47:53;100948.66;;;3.47;100.00
68594;BME280;55563;52.416;13.548;2023-04-26T01:50:08;100946.69;;;3.43;100.00
68594;BME280;55563;52.416;13.548;2023-04-26T01:52:23;100948.91;;;3.33;100.00
68594;BME280;55563;52.416;13.548;2023-04-26T01:54:37;100957.09;;;3.30;100.00
68594;BME280;55563;52.416;13.548;2023-04-26T01:57:00;100949.47;;;3.41;100.00
68594;BME280;55563;52.416;13.548;2023-04-26T01:59:09;100954.09;;;3.39;100.00
68594;BME280;55563;52.416;13.548;2023-04-26T02:01:30;100952.91;;;3.35;100.00
68594;BME280;55563;52.416;13.548;2023-04-26T02:03:39;100949.28;;;3.36;100.00
68594;BME280;55563;52.416;13.548;2023-04-26T02:06:01;100950.88;;;3.37;100.00
68594;BME280;55563;52.416;13.548;2023-04-26T02:08:09;100943.09;;;3.37;100.00
68594;BME280;55563;52.416;13.548;2023-04-26T02:10:31;100952.53;;;3.25;100.00
68594;BME280;55563;52.416;13.548;2023-04-26T02:12:46;100958.28;;;3.27;100.00
68594;BME280;55563;52.416;13.548;2023-04-26T02:15:07;100951.91;;;3.30;100.00
68594;BME280;55563;52.416;13.548;2023-04-26T02:17:25;100948.66;;;3.41;100.00
68594;BME280;55563;52.416;13.548;2023-04-26T02:19:43;100945.53;;;3.26;100.00
68594;BME280;55563;52.416;13.548;2023-04-26T02:21:57;100942.53;;;3.16;100.00
68594;BME280;55563;52.416;13.548;2023-04-26T02:24:20;100949.31;;;3.23;100.00
68594;BME280;55563;52.416;13.548;2023-04-26T02:26:27;100946.53;;;3.18;100.00
68594;BME280;55563;52.416;13.548;2023-04-26T02:28:55;100946.91;;;3.22;100.00
68594;BME280;55563;52.416;13.548;2023-04-26T02:31:02;100951.53;;;3.20;100.00
68594;BME280;55563;52.416;13.548;2023-04-26T02:33:30;100961.72;;;3.21;100.00
68594;BME280;55563;52.416;13.548;2023-04-26T02:35:37;100950.53;;;3.07;100.00
68594;BME280;55563;52.416;13.548;2023-04-26T02:37:58;100951.53;;;3.20;100.00
68594;BME280;55563;52.416;13.548;2023-04-26T02:40:06;100948.13;;;3.19;100.00
68594;BME280;55563;52.416;13.548;2023-04-26T02:42:34;100948.94;;;3.20;100.00
68594;BME280;55563;52.416;13.548;2023-04-26T02:45:02;100943.53;;;3.15;100.00
68594;BME280;55563;52.416;13.548;2023-04-26T02:47:10;100949.13;;;3.18;100.00
68594;BME280;55563;52.416;13.548;2023-04-26T02:49:38;100942.13;;;3.12;100.00
68594;BME280;55563;52.416;13.548;2023-04-26T02:51:45;100946.53;;;3.12;100.00
68594;BME280;55563;52.416;13.548;2023-04-26T02:54:13;100949.72;;;3.07;100.00
68594;BME280;55563;52.416;13.548;2023-04-26T02:56:27;100947.34;;;2.99;100.00
68594;BME280;55563;52.416;13.548;2023-04-26T02:58:41;100948.16;;;3.06;100.00
68594;BME280;55563;52.416;13.548;2023-04-26T03:00:56;100953.53;;;2.98;100.00
68594;BME280;55563;52.416;13.548;2023-04-26T03:03:10;100946.56;;;2.92;100.00
68594;BME280;55563;52.416;13.548;2023-04-26T03:05:25;100952.72;;;2.97;100.00
68594;BME280;55563;52.416;13.548;2023-04-26T03:07:46;100960.13;;;2.94;100.00
68594;BME280;55563;52.416;13.548;2023-04-26T03:09:53;100958.31;;;2.94;100.00
68594;BME280;55563;52.416;13.548;2023-04-26T03:12:14;100956.34;;;2.96;100.00
68594;BME280;55563;52.416;13.548;2023-04-26T03:14:21;100957.72;;;2.99;100.00
68594;BME280;55563;52.416;13.548;2023-04-26T03:16:43;100961.53;;;2.96;100.00
68594;BME280;55563;52.416;13.548;2023-04-26T03:18:57;100953.94;;;3.01;100.00
68594;BME280;55563;52.416;13.548;2023-04-26T03:21:19;100950.53;;;2.94;100.00
68594;BME280;55563;52.416;13.548;2023-04-26T03:23:27;100955.72;;;2.75;100.00
68594;BME280;55563;52.416;13.548;2023-04-26T03:25:50;100957.72;;;2.79;100.00
68594;BME280;55563;52.416;13.548;2023-04-26T03:28:04;100965.53;;;2.73;100.00
68594;BME280;55563;52.416;13.548;2023-04-26T03:30:18;100959.72;;;2.77;100.00
68594;BME280;55563;52.416;13.548;2023-04-26T03:32:32;100971.28;;;2.75;100.00
68594;BME280;55563;52.416;13.548;2023-04-26T03:34:47;100971.13;;;2.83;100.00
68594;BME280;55563;52.416;13.548;2023-04-26T03:37:02;100971.69;;;2.78;100.00
68594;BME280;55563;52.416;13.548;2023-04-26T03:39:18;100974.50;;;2.83;100.00
68594;BME280;55563;52.416;13.548;2023-04-26T03:41:32;100981.47;;;2.76;100.00
68594;BME280;55563;52.416;13.548;2023-04-26T03:43:49;100989.09;;;2.78;100.00
68594;BME280;55563;52.416;13.548;2023-04-26T03:46:03;100976.91;;;2.91;100.00
68594;BME280;55563;52.416;13.548;2023-04-26T03:48:26;100981.09;;;2.92;100.00
68594;BME280;55563;52.416;13.548;2023-04-26T03:50:34;100981.47;;;2.89;100.00
68594;BME280;55563;52.416;13.548;2023-04-26T03:52:57;100979.09;;;2.94;100.00
68594;BME280;55563;52.416;13.548;2023-04-26T03:55:11;100984.69;;;2.91;100.00
68594;BME280;55563;52.416;13.548;2023-04-26T03:57:32;100988.06;;;2.85;100.00
68594;BME280;55563;52.416;13.548;2023-04-26T03:59:40;100976.31;;;2.83;100.00
68594;BME280;55563;52.416;13.548;2023-04-26T04:02:01;100981.09;;;2.99;100.00
68594;BME280;55563;52.416;13.548;2023-04-26T04:04:15;100997.06;;;3.02;100.00
68594;BME280;55563;52.416;13.548;2023-04-26T04:06:36;100992.28;;;2.99;100.00
68594;BME280;55563;52.416;13.548;2023-04-26T04:08:44;100992.28;;;3.06;100.00
68594;BME280;55563;52.416;13.548;2023-04-26T04:11:05;100991.50;;;3.05;100.00
68594;BME280;55563;52.416;13.548;2023-04-26T04:13:14;100985.88;;;3.28;100.00
68594;BME280;55563;52.416;13.548;2023-04-26T04:15:35;100979.88;;;3.28;100.00
68594;BME280;55563;52.416;13.548;2023-04-26T04:17:43;100989.47;;;3.40;100.00
68594;BME280;55563;52.416;13.548;2023-04-26T04:20:05;100984.47;;;3.39;100.00
68594;BME280;55563;52.416;13.548;2023-04-26T04:22:13;100991.44;;;3.51;100.00
68594;BME280;55563;52.416;13.548;2023-04-26T04:24:34;100989.44;;;3.47;100.00
68594;BME280;55563;52.416;13.548;2023-04-26T04:26:41;100996.59;;;3.65;100.00
68594;BME280;55563;52.416;13.548;2023-04-26T04:29:02;100990.00;;;3.69;100.00
68594;BME280;55563;52.416;13.548;2023-04-26T04:31:22;100986.69;;;5.25;100.00
68594;BME280;55563;52.416;13.548;2023-04-26T04:33:36;100991.03;;;6.93;100.00
68594;BME280;55563;52.416;13.548;2023-04-26T04:35:50;100994.13;;;7.37;100.00
68594;BME280;55563;52.416;13.548;2023-04-26T04:38:05;100993.06;;;8.69;100.00
68594;BME280;55563;52.416;13.548;2023-04-26T04:40:19;100995.00;;;8.91;100.00
68594;BME280;55563;52.416;13.548;2023-04-26T04:42:35;101000.22;;;8.74;100.00
68594;BME280;55563;52.416;13.548;2023-04-26T04:44:50;101003.47;;;9.70;100.00
68594;BME280;55563;52.416;13.548;2023-04-26T04:47:06;101007.09;;;9.63;100.00
68594;BME280;55563;52.416;13.548;2023-04-26T04:49:20;101007.00;;;9.97;100.00
68594;BME280;55563;52.416;13.548;2023-04-26T04:51:34;101005.34;;;10.34;100.00
68594;BME280;55563;52.416;13.548;2023-04-26T04:53:48;101012.53;;;11.45;95.03
68594;BME280;55563;52.416;13.548;2023-04-26T04:56:09;101007.97;;;10.93;93.34
68594;BME280;55563;52.416;13.548;2023-04-26T04:58:18;101019.50;;;10.60;94.56
68594;BME280;55563;52.416;13.548;2023-04-26T05:00:38;101013.38;;;12.07;88.72
68594;BME280;55563;52.416;13.548;2023-04-26T05:02:52;101014.28;;;12.53;82.80
68594;BME280;55563;52.416;13.548;2023-04-26T05:05:12;101024.19;;;12.06;85.26
68594;BME280;55563;52.416;13.548;2023-04-26T05:07:20;101018.25;;;12.51;84.86
68594;BME280;55563;52.416;13.548;2023-04-26T05:09:41;101017.47;;;11.73;87.33
68594;BME280;55563;52.416;13.548;2023-04-26T05:11:48;101028.50;;;11.33;90.90
68594;BME280;55563;52.416;13.548;2023-04-26T05:14:09;101028.78;;;11.00;88.90
68594;BME280;55563;52.416;13.548;2023-04-26T05:16:17;101021.69;;;12.66;81.23
68594;BME280;55563;52.416;13.548;2023-04-26T05:18:37;101032.41;;;11.67;87.08
68594;BME280;55563;52.416;13.548;2023-04-26T05:20:44;101027.91;;;12.15;88.49
68594;BME280;55563;52.416;13.548;2023-04-26T05:23:05;101029.06;;;11.77;84.97
68594;BME280;55563;52.416;13.548;2023-04-26T05:25:13;101033.81;;;12.62;82.18
68594;BME280;55563;52.416;13.548;2023-04-26T05:27:35;101037.75;;;13.61;73.50
68594;BME280;55563;52.416;13.548;2023-04-26T05:30:13;101037.25;;;12.63;83.91
68594;BME280;55563;52.416;13.548;2023-04-26T05:33:01;101035.41;;;12.84;74.34
68594;BME280;55563;52.416;13.548;2023-04-26T05:35:16;101034.13;;;11.47;83.15
68594;BME280;55563;52.416;13.548;2023-04-26T05:37:36;101040.09;;;12.36;78.01
68594;BME280;55563;52.416;13.548;2023-04-26T05:39:47;101045.53;;;11.20;86.13
68594;BME280;55563;52.416;13.548;2023-04-26T05:42:15;101044.13;;;13.35;78.18
68594;BME280;55563;52.416;13.548;2023-04-26T05:44:43;101049.97;;;11.99;78.43
68594;BME280;55563;52.416;13.548;2023-04-26T05:46:51;101046.56;;;14.99;68.54
68594;BME280;55563;52.416;13.548;2023-04-26T05:49:18;101049.63;;;15.11;62.82
68594;BME280;55563;52.416;13.548;2023-04-26T05:51:46;101055.72;;;15.69;62.28
68594;BME280;55563;52.416;13.548;2023-04-26T05:53:54;101053.03;;;14.82;62.43
68594;BME280;55563;52.416;13.548;2023-04-26T05:56:14;101054.84;;;12.27;73.37
68594;BME280;55563;52.416;13.548;2023-04-26T05:58:22;101041.22;;;12.91;66.15
68594;BME280;55563;52.416;13.548;2023-04-26T06:00:42;101058.06;;;14.35;66.91
68594;BME280;55563;52.416;13.548;2023-04-26T06:02:51;101051.31;;;15.02;61.92
68594;BME280;55563;52.416;13.548;2023-04-26T06:05:12;101055.44;;;15.94;59.17
68594;BME280;55563;52.416;13.548;2023-04-26T06:07:20;101056.34;;;16.08;56.86
68594;BME280;55563;52.416;13.548;2023-04-26T06:09:41;101043.81;;;16.89;53.92
68594;BME280;55563;52.416;13.548;2023-04-26T06:11:49;101055.22;;;14.21;59.58
68594;BME280;55563;52.416;13.548;2023-04-26T06:14:21;101061.91;;;16.07;57.20
68594;BME280;55563;52.416;13.548;2023-04-26T06:16:54;101061.91;;;16.49;54.90
68594;BME280;55563;52.416;13.548;2023-04-26T06:19:16;101056.38;;;14.98;57.68
68594;BME280;55563;52.416;13.548;2023-04-26T06:21:16;101054.16;;;15.92;54.82
68594;BME280;55563;52.416;13.548;2023-04-26T06:23:17;101059.09;;;15.98;54.22
68594;BME280;55563;52.416;13.548;2023-04-26T06:25:18;101055.09;;;16.25;55.64
68594;BME280;55563;52.416;13.548;2023-04-26T06:27:20;101060.41;;;15.24;55.73
68594;BME280;55563;52.416;13.548;2023-04-26T06:29:22;101062.94;;;17.05;52.62
68594;BME280;55563;52.416;13.548;2023-04-26T06:31:23;101064.72;;;15.97;52.57
68594;BME280;55563;52.416;13.548;2023-04-26T06:33:25;101053.63;;;17.67;51.78
68594;BME280;55563;52.416;13.548;2023-04-26T06:35:26;101066.28;;;13.49;66.11
68594;BME280;55563;52.416;13.548;2023-04-26T06:37:27;101053.38;;;16.71;53.32
68594;BME280;55563;52.416;13.548;2023-04-26T06:39:28;101051.16;;;16.60;50.37
68594;BME280;55563;52.416;13.548;2023-04-26T06:41:29;101052.31;;;17.05;49.78
68594;BME280;55563;52.416;13.548;2023-04-26T06:43:30;101070.53;;;16.60;53.71
68594;BME280;55563;52.416;13.548;2023-04-26T06:45:36;101062.66;;;17.06;50.21
68594;BME280;55563;52.416;13.548;2023-04-26T06:47:36;101059.16;;;17.70;49.90
68594;BME280;55563;52.416;13.548;2023-04-26T06:49:37;101051.31;;;17.33;48.26
68594;BME280;55563;52.416;13.548;2023-04-26T06:51:38;101052.84;;;17.80;49.81
68594;BME280;55563;52.416;13.548;2023-04-26T06:53:39;101062.91;;;16.91;50.90
68594;BME280;55563;52.416;13.548;2023-04-26T06:55:41;101060.19;;;18.96;48.17
68594;BME280;55563;52.416;13.548;2023-04-26T06:57:42;101065.78;;;16.38;51.14
68594;BME280;55563;52.416;13.548;2023-04-26T06:59:42;101064.44;;;18.25;48.81
68594;BME280;55563;52.416;13.548;2023-04-26T07:01:43;101063.25;;;14.60;55.50
68594;BME280;55563;52.416;13.548;2023-04-26T07:03:44;101076.38;;;16.20;52.44
68594;BME280;55563;52.416;13.548;2023-04-26T07:05:44;101068.94;;;14.33;55.76
68594;BME280;55563;52.416;13.548;2023-04-26T07:07:45;101069.28;;;15.39;55.34
68594;BME280;55563;52.416;13.548;2023-04-26T07:09:46;101065.81;;;13.12;62.67
68594;BME280;55563;52.416;13.548;2023-04-26T07:11:47;101074.28;;;12.16;75.02
68594;BME280;55563;52.416;13.548;2023-04-26T07:13:48;101072.44;;;12.11;75.80
68594;BME280;55563;52.416;13.548;2023-04-26T07:15:49;101087.97;;;14.40;70.81
68594;BME280;55563;52.416;13.548;2023-04-26T07:17:50;101089.78;;;12.02;79.68
68594;BME280;55563;52.416;13.548;2023-04-26T07:19:51;101072.16;;;10.22;90.59
68594;BME280;55563;52.416;13.548;2023-04-26T07:21:51;101086.59;;;13.64;78.08
68594;BME280;55563;52.416;13.548;2023-04-26T07:23:54;101082.75;;;15.95;60.73
68594;BME280;55563;52.416;13.548;2023-04-26T07:25:55;101080.56;;;14.43;60.86
68594;BME280;55563;52.416;13.548;2023-04-26T07:27:56;101089.91;;;12.28;80.86
68594;BME280;55563;52.416;13.548;2023-04-26T07:29:56;101083.22;;;13.23;74.63
68594;BME280;55563;52.416;13.548;2023-04-26T07:31:57;101089.72;;;11.92;81.65
68594;BME280;55563;52.416;13.548;2023-04-26T07:33:58;101081.38;;;11.26;86.08
68594;BME280;55563;52.416;13.548;2023-04-26T07:35:59;101079.06;;;15.09;65.78
68594;BME280;55563;52.416;13.548;2023-04-26T07:38:01;101085.34;;;14.79;58.87
68594;BME280;55563;52.416;13.548;2023-04-26T07:40:01;101082.16;;;14.33;64.06
68594;BME280;55563;52.416;13.548;2023-04-26T07:42:04;101090.28;;;10.93;79.90
68594;BME280;55563;52.416;13.548;2023-04-26T07:44:05;101091.47;;;11.76;76.01
68594;BME280;55563;52.416;13.548;2023-04-26T07:46:05;101083.28;;;11.04;87.24
68594;BME280;55563;52.416;13.548;2023-04-26T07:48:06;101077.81;;;10.84;87.00
68594;BME280;55563;52.416;13.548;2023-04-26T07:50:08;101080.38;;;10.25;91.90
68594;BME280;55563;52.416;13.548;2023-04-26T07:52:09;101093.91;;;10.87;90.91
68594;BME280;55563;52.416;13.548;2023-04-26T07:54:10;101094.69;;;10.61;87.96
68594;BME280;55563;52.416;13.548;2023-04-26T07:56:10;101089.03;;;10.74;91.52
68594;BME280;55563;52.416;13.548;2023-04-26T07:58:11;101090.59;;;10.05;92.04
68594;BME280;55563;52.416;13.548;2023-04-26T08:00:14;101086.66;;;10.24;94.07
68594;BME280;55563;52.416;13.548;2023-04-26T08:02:16;101092.00;;;10.13;92.94
68594;BME280;55563;52.416;13.548;2023-04-26T08:04:29;101089.78;;;9.83;97.45
68594;BME280;55563;52.416;13.548;2023-04-26T08:06:31;101089.13;;;10.14;98.09
68594;BME280;55563;52.416;13.548;2023-04-26T08:08:33;101087.88;;;9.78;97.92
68594;BME280;55563;52.416;13.548;2023-04-26T08:10:35;101095.13;;;9.54;100.00
68594;BME280;55563;52.416;13.548;2023-04-26T08:12:40;101100.78;;;9.63;100.00
68594;BME280;55563;52.416;13.548;2023-04-26T08:14:42;101096.91;;;9.49;100.00
68594;BME280;55563;52.416;13.548;2023-04-26T08:16:43;101097.00;;;8.92;100.00
68594;BME280;55563;52.416;13.548;2023-04-26T08:18:44;101100.09;;;8.89;100.00
68594;BME280;55563;52.416;13.548;2023-04-26T08:20:44;101101.38;;;8.87;100.00
68594;BME280;55563;52.416;13.548;2023-04-26T08:22:45;101109.44;;;9.13;99.80
68594;BME280;55563;52.416;13.548;2023-04-26T08:24:50;101109.69;;;8.84;98.88
68594;BME280;55563;52.416;13.548;2023-04-26T08:26:51;101110.09;;;9.21;99.19
68594;BME280;55563;52.416;13.548;2023-04-26T08:28:51;101104.34;;;9.40;98.58
68594;BME280;55563;52.416;13.548;2023-04-26T08:30:52;101101.25;;;9.43;98.79
68594;BME280;55563;52.416;13.548;2023-04-26T08:32:53;101105.38;;;10.11;94.83
68594;BME280;55563;52.416;13.548;2023-04-26T08:34:54;101097.59;;;9.78;98.40
68594;BME280;55563;52.416;13.548;2023-04-26T08:36:54;101101.91;;;9.34;100.00
68594;BME280;55563;52.416;13.548;2023-04-26T08:38:56;101108.66;;;9.30;100.00
68594;BME280;55563;52.416;13.548;2023-04-26T08:40:58;101113.19;;;8.89;100.00
68594;BME280;55563;52.416;13.548;2023-04-26T08:43:01;101115.34;;;8.64;100.00
68594;BME280;55563;52.416;13.548;2023-04-26T08:45:03;101125.56;;;8.49;100.00
68594;BME280;55563;52.416;13.548;2023-04-26T08:47:14;101121.56;;;8.46;100.00
68594;BME280;55563;52.416;13.548;2023-04-26T08:51:36;101121.72;;;8.68;100.00
68594;BME280;55563;52.416;13.548;2023-04-26T08:53:37;101116.72;;;8.95;100.00
68594;BME280;55563;52.416;13.548;2023-04-26T08:55:39;101120.66;;;8.41;100.00
68594;BME280;55563;52.416;13.548;2023-04-26T08:57:42;101123.25;;;9.09;100.00
68594;BME280;55563;52.416;13.548;2023-04-26T08:59:45;101126.94;;;9.58;100.00
68594;BME280;55563;52.416;13.548;2023-04-26T09:01:47;101117.53;;;9.79;100.00
68594;BME280;55563;52.416;13.548;2023-04-26T09:03:48;101129.81;;;9.56;100.00
68594;BME280;55563;52.416;13.548;2023-04-26T09:05:49;101118.88;;;9.64;100.00
68594;BME280;55563;52.416;13.548;2023-04-26T09:07:54;101120.34;;;9.72;100.00
68594;BME280;55563;52.416;13.548;2023-04-26T09:09:57;101125.25;;;9.18;100.00
68594;BME280;55563;52.416;13.548;2023-04-26T09:11:59;101122.25;;;9.60;100.00
68594;BME280;55563;52.416;13.548;2023-04-26T09:14:00;101123.41;;;9.86;100.00
68594;BME280;55563;52.416;13.548;2023-04-26T09:16:01;101129.50;;;10.08;100.00
68594;BME280;55563;52.416;13.548;2023-04-26T09:18:22;101124.44;;;10.40;100.00
68594;BME280;55563;52.416;13.548;2023-04-26T09:20:27;101115.97;;;10.38;100.00
68594;BME280;55563;52.416;13.548;2023-04-26T09:22:31;101114.47;;;11.22;100.00
68594;BME280;55563;52.416;13.548;2023-04-26T09:24:49;101106.50;;;10.85;90.98
68594;BME280;55563;52.416;13.548;2023-04-26T09:27:00;101111.25;;;10.62;91.30
68594;BME280;55563;52.416;13.548;2023-04-26T09:29:20;101097.41;;;10.93;91.96
68594;BME280;55563;52.416;13.548;2023-04-26T09:31:39;101102.19;;;11.01;89.92
68594;BME280;55563;52.416;13.548;2023-04-26T09:34:00;101102.09;;;10.42;88.17
68594;BME280;55563;52.416;13.548;2023-04-26T09:36:16;101096.22;;;10.57;87.02
68594;BME280;55563;52.416;13.548;2023-04-26T09:38:17;101104.19;;;10.40;86.69
68594;BME280;55563;52.416;13.548;2023-04-26T09:40:20;101101.00;;;10.87;88.81
68594;BME280;55563;52.416;13.548;2023-04-26T09:42:20;101109.56;;;11.04;97.31
68594;BME280;55563;52.416;13.548;2023-04-26T09:44:22;101109.09;;;10.80;88.33
68594;BME280;55563;52.416;13.548;2023-04-26T09:46:23;101116.91;;;10.48;84.16
68594;BME280;55563;52.416;13.548;2023-04-26T09:48:27;101116.53;;;9.63;88.13
68594;BME280;55563;52.416;13.548;2023-04-26T09:50:30;101113.56;;;10.15;92.29
68594;BME280;55563;52.416;13.548;2023-04-26T09:52:31;101115.38;;;10.31;89.81
68594;BME280;55563;52.416;13.548;2023-04-26T09:54:47;101114.16;;;10.38;87.92
68594;BME280;55563;52.416;13.548;2023-04-26T09:57:03;101100.09;;;10.28;83.93
68594;BME280;55563;52.416;13.548;2023-04-26T09:59:04;101111.53;;;10.00;86.20
68594;BME280;55563;52.416;13.548;2023-04-26T10:01:07;101117.00;;;10.15;86.84
68594;BME280;55563;52.416;13.548;2023-04-26T10:03:10;101118.34;;;10.18;87.23
68594;BME280;55563;52.416;13.548;2023-04-26T10:05:12;101112.16;;;9.69;88.31
68594;BME280;55563;52.416;13.548;2023-04-26T10:07:15;101120.88;;;9.91;90.80
68594;BME280;55563;52.416;13.548;2023-04-26T10:09:16;101120.44;;;10.16;91.53
68594;BME280;55563;52.416;13.548;2023-04-26T10:11:17;101124.25;;;10.08;88.94
68594;BME280;55563;52.416;13.548;2023-04-26T10:13:18;101128.38;;;10.04;89.54
68594;BME280;55563;52.416;13.548;2023-04-26T10:15:19;101115.53;;;10.46;90.65
68594;BME280;55563;52.416;13.548;2023-04-26T10:17:20;101120.69;;;10.58;90.66
68594;BME280;55563;52.416;13.548;2023-04-26T10:19:21;101109.94;;;10.59;87.02
68594;BME280;55563;52.416;13.548;2023-04-26T10:21:27;101114.88;;;9.95;82.27
68594;BME280;55563;52.416;13.548;2023-04-26T10:23:28;101118.47;;;10.28;85.12
68594;BME280;55563;52.416;13.548;2023-04-26T10:25:39;101118.97;;;9.86;84.38
68594;BME280;55563;52.416;13.548;2023-04-26T10:32:07;101107.75;;;9.74;94.92
68594;BME280;55563;52.416;13.548;2023-04-26T10:34:24;101110.72;;;9.99;94.10
68594;BME280;55563;52.416;13.548;2023-04-26T10:36:25;101113.66;;;10.03;91.58
68594;BME280;55563;52.416;13.548;2023-04-26T10:38:25;101121.41;;;10.31;83.87
68594;BME280;55563;52.416;13.548;2023-04-26T10:40:31;101119.53;;;10.97;84.18
68594;BME280;55563;52.416;13.548;2023-04-26T10:42:32;101113.31;;;11.40;80.81
68594;BME280;55563;52.416;13.548;2023-04-26T10:44:38;101105.47;;;11.45;77.38
68594;BME280;55563;52.416;13.548;2023-04-26T10:46:40;101119.56;;;11.34;71.67
68594;BME280;55563;52.416;13.548;2023-04-26T10:48:42;101113.03;;;11.36;72.59
68594;BME280;55563;52.416;13.548;2023-04-26T10:53:04;101113.19;;;10.93;72.87
68594;BME280;55563;52.416;13.548;2023-04-26T10:55:05;101106.56;;;10.90;75.96
68594;BME280;55563;52.416;13.548;2023-04-26T10:57:07;101111.53;;;10.38;74.28
68594;BME280;55563;52.416;13.548;2023-04-26T10:59:10;101107.75;;;10.29;71.54
68594;BME280;55563;52.416;13.548;2023-04-26T11:01:18;101114.09;;;9.95;75.30
68594;BME280;55563;52.416;13.548;2023-04-26T11:03:21;101120.38;;;9.94;78.64
68594;BME280;55563;52.416;13.548;2023-04-26T11:05:57;101123.91;;;9.83;80.38
68594;BME280;55563;52.416;13.548;2023-04-26T11:08:08;101117.59;;;9.84;78.86
68594;BME280;55563;52.416;13.548;2023-04-26T11:10:21;101118.47;;;9.89;78.72
68594;BME280;55563;52.416;13.548;2023-04-26T11:12:22;101120.28;;;10.05;80.20
68594;BME280;55563;52.416;13.548;2023-04-26T11:14:23;101116.47;;;9.96;80.59
68594;BME280;55563;52.416;13.548;2023-04-26T11:16:27;101119.78;;;10.08;81.66
68594;BME280;55563;52.416;13.548;2023-04-26T11:18:29;101122.91;;;10.05;80.28
68594;BME280;55563;52.416;13.548;2023-04-26T11:20:30;101133.25;;;9.95;83.49
68594;BME280;55563;52.416;13.548;2023-04-26T11:22:31;101127.50;;;10.15;84.14
68594;BME280;55563;52.416;13.548;2023-04-26T11:24:34;101121.91;;;10.28;82.61
68594;BME280;55563;52.416;13.548;2023-04-26T11:26:36;101122.41;;;10.25;83.07